Time;durP1;ratioP1;P1;durP2;ratioP2;P2;SDS_P1;SDS_P2;PMS_P1;PMS_P2;Temp;Humidity;BMP_temperature;BMP_pressure;BME280_temperature;BME280_humidity;BME280_pressure;Samples;Min_cycle;Max_cycle;Signal;HPM_P1;HPM_P2
2021/06/19 00:00:04;;;;;;;;;;;29.00;41.10;;;;;;1486296;40;19952;-69
2021/06/19 00:01:24;;;;;;;;;;;29.00;41.10;;;;;;1486721;40;19932;-70
2021/06/19 00:02:45;;;;;;;;;;;29.00;41.20;;;;;;1486266;40;19940;-70
2021/06/19 00:04:07;;;;;;;;;;;29.00;41.00;;;;;;1486602;40;20306;-70
2021/06/19 00:05:28;;;;;;;;;;;28.90;41.20;;;;;;1486197;40;19939;-70
2021/06/19 00:06:49;;;;;;;;;;;28.90;41.20;;;;;;1485516;40;20089;-70
2021/06/19 00:08:12;;;;;;;;;;;28.90;41.20;;;;;;1486816;40;20337;-70
2021/06/19 00:09:33;;;;;;;;;;;28.90;41.20;;;;;;1486890;40;19936;-70
2021/06/19 00:10:54;;;;;;;;;;;28.90;41.40;;;;;;1486715;40;19958;-69
2021/06/19 00:12:16;;;;;;;;;;;29.00;41.40;;;;;;1486306;40;19940;-70
2021/06/19 00:13:37;;;;;;;;;;;28.90;41.20;;;;;;1487130;40;19948;-70
2021/06/19 00:14:58;;;;;;;;;;;28.80;41.40;;;;;;1487052;40;19932;-70
2021/06/19 00:16:22;;;;;;;;;;;28.80;41.80;;;;;;1485122;40;19937;-70
2021/06/19 00:17:43;;;;;;;;;;;28.80;41.70;;;;;;1486938;40;19944;-70
2021/06/19 00:19:04;;;;;;;;;;;28.80;41.60;;;;;;1487036;40;19932;-70
2021/06/19 00:20:25;;;;;;;;;;;28.70;41.50;;;;;;1485739;40;19932;-70
2021/06/19 00:21:46;;;;;;;;;;;28.80;42.40;;;;;;1485876;40;19936;-70
2021/06/19 00:23:07;;;;;;;;;;;28.70;42.20;;;;;;1485606;40;20307;-70
2021/06/19 00:24:28;;;;;;;;;;;28.70;41.90;;;;;;1486453;40;20065;-69
2021/06/19 00:25:48;;;;;;;;;;;28.70;41.80;;;;;;1484692;40;19936;-70
2021/06/19 00:27:09;;;;;;;;;;;28.70;41.90;;;;;;1485423;40;19936;-70
2021/06/19 00:28:30;;;;;;;;;;;28.60;42.10;;;;;;1486287;40;20281;-70
2021/06/19 00:29:51;;;;;;;;;;;28.60;42.00;;;;;;1487254;40;19935;-70
2021/06/19 00:31:11;;;;;;;;;;;28.50;43.10;;;;;;1485693;40;19948;-70
2021/06/19 00:32:32;;;;;;;;;;;28.60;42.10;;;;;;1487013;40;19974;-70
2021/06/19 00:33:53;;;;;;;;;;;28.50;42.20;;;;;;1486413;40;20230;-70
2021/06/19 00:35:14;;;;;;;;;;;28.50;42.00;;;;;;1486312;40;20253;-70
2021/06/19 00:36:35;;;;;;;;;;;28.50;42.00;;;;;;1485881;40;20029;-70
2021/06/19 00:37:56;;;;;;;;;;;28.40;41.90;;;;;;1486435;40;20257;-69
2021/06/19 00:39:17;;;;;;;;;;;28.40;41.90;;;;;;1487225;40;19952;-70
2021/06/19 00:40:37;;;;;;;;;;;28.40;42.50;;;;;;1487451;40;20216;-70
2021/06/19 00:41:58;;;;;;;;;;;28.30;41.80;;;;;;1486261;40;19967;-70
2021/06/19 00:43:19;;;;;;;;;;;28.30;41.90;;;;;;1485346;40;20421;-70
2021/06/19 00:44:41;;;;;;;;;;;28.30;42.00;;;;;;1486182;40;20249;-70
2021/06/19 00:46:02;;;;;;;;;;;28.30;41.90;;;;;;1488049;40;19947;-70
2021/06/19 00:47:25;;;;;;;;;;;28.30;42.00;;;;;;1486198;40;19956;-70
2021/06/19 00:48:45;;;;;;;;;;;28.20;41.90;;;;;;1485097;40;20258;-70
2021/06/19 00:50:07;;;;;;;;;;;28.30;42.00;;;;;;1486370;40;19939;-70
2021/06/19 00:51:28;;;;;;;;;;;28.20;42.00;;;;;;1486608;39;19940;-70
2021/06/19 00:52:49;;;;;;;;;;;28.20;41.90;;;;;;1485881;39;20249;-70
2021/06/19 00:54:10;;;;;;;;;;;28.20;42.00;;;;;;1485643;40;19932;-70
2021/06/19 00:55:31;;;;;;;;;;;28.20;42.10;;;;;;1486198;40;19936;-70
2021/06/19 00:56:51;;;;;;;;;;;28.10;41.90;;;;;;1487087;40;19939;-70
2021/06/19 00:58:12;;;;;;;;;;;28.10;42.00;;;;;;1485298;40;19936;-69
2021/06/19 00:59:34;;;;;;;;;;;28.10;42.70;;;;;;1485821;40;19936;-70
2021/06/19 01:00:55;;;;;;;;;;;28.10;42.30;;;;;;1484916;40;20129;-70
2021/06/19 01:02:16;;;;;;;;;;;28.10;42.20;;;;;;1487676;40;20292;-70
2021/06/19 01:03:37;;;;;;;;;;;28.10;42.20;;;;;;1486177;40;20257;-70
2021/06/19 01:04:57;;;;;;;;;;;28.00;42.80;;;;;;1482544;40;19932;-70
2021/06/19 01:06:18;;;;;;;;;;;28.00;42.50;;;;;;1484232;40;19936;-70
2021/06/19 01:07:39;;;;;;;;;;;28.00;42.30;;;;;;1486338;40;19951;-70
2021/06/19 01:09:00;;;;;;;;;;;28.00;42.10;;;;;;1487910;40;19931;-70
2021/06/19 01:10:21;;;;;;;;;;;27.90;42.10;;;;;;1486190;39;19947;-70
2021/06/19 01:11:43;;;;;;;;;;;28.00;42.30;;;;;;1486530;39;19936;-69
2021/06/19 01:13:04;;;;;;;;;;;27.90;42.30;;;;;;1486991;40;19932;-70
2021/06/19 01:14:25;;;;;;;;;;;27.90;43.30;;;;;;1487358;40;20009;-70
2021/06/19 01:15:46;;;;;;;;;;;27.90;43.40;;;;;;1485731;40;19939;-70
2021/06/19 01:17:06;;;;;;;;;;;27.90;43.00;;;;;;1485529;40;19990;-70
2021/06/19 01:18:27;;;;;;;;;;;27.80;42.60;;;;;;1486332;40;19932;-70
2021/06/19 01:20:05;;;;;;;;;;;27.80;42.50;;;;;;1486089;40;20209;-70
2021/06/19 01:21:26;;;;;;;;;;;27.80;42.40;;;;;;1485800;40;19940;-70
2021/06/19 01:22:49;;;;;;;;;;;27.80;42.50;;;;;;1485395;40;19940;-70
2021/06/19 01:24:13;;;;;;;;;;;27.70;42.90;;;;;;1485870;40;19936;-70
2021/06/19 01:25:36;;;;;;;;;;;27.80;43.00;;;;;;1485435;40;19936;-70
2021/06/19 01:26:57;;;;;;;;;;;27.70;42.90;;;;;;1485590;40;19955;-70
2021/06/19 01:28:18;;;;;;;;;;;27.70;42.60;;;;;;1486981;40;20239;-70
2021/06/19 01:29:38;;;;;;;;;;;27.60;42.40;;;;;;1488022;40;19932;-70
2021/06/19 01:30:59;;;;;;;;;;;27.70;42.30;;;;;;1485233;40;20443;-70
2021/06/19 01:32:20;;;;;;;;;;;27.60;42.10;;;;;;1486897;39;20260;-70
2021/06/19 01:33:42;;;;;;;;;;;27.60;42.70;;;;;;1486235;40;19937;-70
2021/06/19 01:35:03;;;;;;;;;;;27.60;42.90;;;;;;1486986;40;19952;-70
2021/06/19 01:36:24;;;;;;;;;;;27.60;42.50;;;;;;1486736;40;20270;-70
2021/06/19 01:37:46;;;;;;;;;;;27.60;42.50;;;;;;1486208;40;20134;-70
2021/06/19 01:39:07;;;;;;;;;;;27.50;42.40;;;;;;1487834;40;19958;-70
2021/06/19 01:40:29;;;;;;;;;;;27.50;42.80;;;;;;1486305;40;19932;-70
2021/06/19 01:41:49;;;;;;;;;;;27.50;42.60;;;;;;1487075;40;19936;-70
2021/06/19 01:43:10;;;;;;;;;;;27.50;42.60;;;;;;1487432;40;19972;-70
2021/06/19 01:44:32;;;;;;;;;;;27.50;43.00;;;;;;1485586;40;20339;-70
2021/06/19 01:45:53;;;;;;;;;;;27.50;42.60;;;;;;1485690;40;19964;-70
2021/06/19 01:47:14;;;;;;;;;;;27.50;42.90;;;;;;1486327;40;19964;-70
2021/06/19 01:48:35;;;;;;;;;;;27.40;43.20;;;;;;1486080;39;19942;-70
2021/06/19 01:49:56;;;;;;;;;;;27.40;42.90;;;;;;1486629;40;19932;-70
2021/06/19 01:51:17;;;;;;;;;;;27.40;42.80;;;;;;1486917;39;20235;-70
2021/06/19 01:52:39;;;;;;;;;;;27.40;42.90;;;;;;1486695;40;20281;-70
2021/06/19 01:53:59;;;;;;;;;;;27.40;42.90;;;;;;1485562;40;19940;-70
2021/06/19 01:55:21;;;;;;;;;;;27.40;43.00;;;;;;1486181;40;19932;-70
2021/06/19 01:56:42;;;;;;;;;;;27.30;42.80;;;;;;1486921;40;19939;-69
2021/06/19 01:58:06;;;;;;;;;;;27.30;42.60;;;;;;1486887;40;19966;-70
2021/06/19 01:59:26;;;;;;;;;;;27.30;43.00;;;;;;1485867;40;19979;-70
2021/06/19 02:00:47;;;;;;;;;;;27.30;42.80;;;;;;1485564;40;19947;-70
2021/06/19 02:02:08;;;;;;;;;;;27.30;42.90;;;;;;1488122;40;19943;-70
2021/06/19 02:03:29;;;;;;;;;;;27.30;42.60;;;;;;1488006;40;19940;-70
2021/06/19 02:04:49;;;;;;;;;;;27.20;42.50;;;;;;1485723;40;20289;-70
2021/06/19 02:06:11;;;;;;;;;;;27.20;42.70;;;;;;1487625;40;19939;-70
2021/06/19 02:07:33;;;;;;;;;;;27.20;42.80;;;;;;1487580;40;19940;-70
2021/06/19 02:09:03;;;;;;;;;;;27.20;43.30;;;;;;1485289;40;19958;-70
2021/06/19 02:10:29;;;;;;;;;;;27.20;43.00;;;;;;1485750;40;19936;-70
2021/06/19 02:11:52;;;;;;;;;;;27.20;42.80;;;;;;1485371;39;19943;-70
2021/06/19 02:13:13;;;;;;;;;;;27.20;42.90;;;;;;1487979;40;19932;-70
2021/06/19 02:14:33;;;;;;;;;;;27.10;43.00;;;;;;1485857;40;19940;-70
2021/06/19 02:15:55;;;;;;;;;;;27.20;42.90;;;;;;1486891;40;19943;-70
2021/06/19 02:17:16;;;;;;;;;;;27.10;43.10;;;;;;1486301;40;19958;-70
2021/06/19 02:18:36;;;;;;;;;;;27.10;43.40;;;;;;1486106;40;19936;-70
2021/06/19 02:19:57;;;;;;;;;;;27.00;42.80;;;;;;1486107;40;19984;-70
2021/06/19 02:21:18;;;;;;;;;;;27.10;43.10;;;;;;1484811;40;19942;-70
2021/06/19 02:22:39;;;;;;;;;;;27.10;43.50;;;;;;1487544;40;19936;-70
2021/06/19 02:24:00;;;;;;;;;;;27.00;43.40;;;;;;1486458;40;20008;-70
2021/06/19 02:25:23;;;;;;;;;;;27.00;43.20;;;;;;1485867;40;19936;-70
2021/06/19 02:26:44;;;;;;;;;;;27.00;43.70;;;;;;1483592;40;20048;-70
2021/06/19 02:28:06;;;;;;;;;;;27.00;43.80;;;;;;1484092;40;19937;-70
2021/06/19 02:29:27;;;;;;;;;;;27.00;43.40;;;;;;1486130;40;19944;-70
2021/06/19 02:30:48;;;;;;;;;;;26.90;43.30;;;;;;1484745;40;19947;-70
2021/06/19 02:32:09;;;;;;;;;;;26.90;43.20;;;;;;1484669;40;20021;-70
2021/06/19 02:33:30;;;;;;;;;;;26.90;43.20;;;;;;1484959;40;19940;-70
2021/06/19 02:34:51;;;;;;;;;;;26.90;43.50;;;;;;1486160;40;19943;-70
2021/06/19 02:36:12;;;;;;;;;;;26.90;43.10;;;;;;1485937;40;19944;-70
2021/06/19 02:37:33;;;;;;;;;;;26.80;43.40;;;;;;1486836;40;19944;-70
2021/06/19 02:38:53;;;;;;;;;;;26.80;44.00;;;;;;1486225;40;19951;-70
2021/06/19 02:40:14;;;;;;;;;;;26.80;44.00;;;;;;1485119;40;19945;-70
2021/06/19 02:41:35;;;;;;;;;;;26.80;43.70;;;;;;1484491;40;19944;-70
2021/06/19 02:42:56;;;;;;;;;;;26.80;43.70;;;;;;1485463;40;19939;-70
2021/06/19 02:44:17;;;;;;;;;;;26.80;43.70;;;;;;1485610;40;20070;-70
2021/06/19 02:45:38;;;;;;;;;;;26.70;43.70;;;;;;1487418;40;20397;-70
2021/06/19 02:46:58;;;;;;;;;;;26.70;44.30;;;;;;1486763;40;19948;-70
2021/06/19 02:48:19;;;;;;;;;;;26.70;44.50;;;;;;1484471;40;20273;-71
2021/06/19 02:49:40;;;;;;;;;;;26.70;46.00;;;;;;1486825;40;19936;-70
2021/06/19 02:51:01;;;;;;;;;;;26.60;44.20;;;;;;1487753;40;19932;-70
2021/06/19 02:52:21;;;;;;;;;;;26.60;44.00;;;;;;1486408;39;19939;-70
2021/06/19 02:53:42;;;;;;;;;;;26.60;44.10;;;;;;1485677;40;19943;-70
2021/06/19 02:55:03;;;;;;;;;;;26.60;43.90;;;;;;1487329;40;19972;-70
2021/06/19 02:56:24;;;;;;;;;;;26.60;44.40;;;;;;1487214;39;19939;-70
2021/06/19 02:57:45;;;;;;;;;;;26.60;44.70;;;;;;1485648;40;19948;-70
2021/06/19 02:59:06;;;;;;;;;;;26.60;44.20;;;;;;1484515;40;19932;-71
2021/06/19 03:00:27;;;;;;;;;;;26.50;44.10;;;;;;1487274;40;19935;-70
2021/06/19 03:01:48;;;;;;;;;;;26.50;44.30;;;;;;1485686;40;20061;-70
2021/06/19 03:03:09;;;;;;;;;;;26.50;44.50;;;;;;1485281;40;19943;-70
2021/06/19 03:04:29;;;;;;;;;;;26.50;44.20;;;;;;1487721;39;20242;-70
2021/06/19 03:05:50;;;;;;;;;;;26.50;44.00;;;;;;1487581;39;20255;-70
2021/06/19 03:07:11;;;;;;;;;;;26.50;44.00;;;;;;1486817;40;19932;-70
2021/06/19 03:08:32;;;;;;;;;;;26.40;44.30;;;;;;1485911;40;19939;-70
2021/06/19 03:09:53;;;;;;;;;;;26.40;43.80;;;;;;1486734;40;20066;-70
2021/06/19 03:11:13;;;;;;;;;;;26.40;43.80;;;;;;1487174;40;20233;-70
2021/06/19 03:12:35;;;;;;;;;;;26.40;43.90;;;;;;1486933;40;19947;-70
2021/06/19 03:13:57;;;;;;;;;;;26.40;43.90;;;;;;1487424;39;19936;-70
2021/06/19 03:15:17;;;;;;;;;;;26.40;43.80;;;;;;1486965;39;19940;-70
2021/06/19 03:16:38;;;;;;;;;;;26.40;43.80;;;;;;1488315;40;19991;-70
2021/06/19 03:17:59;;;;;;;;;;;26.30;43.90;;;;;;1486094;40;19975;-70
2021/06/19 03:19:20;;;;;;;;;;;26.30;43.90;;;;;;1486812;40;20165;-70
2021/06/19 03:20:41;;;;;;;;;;;26.30;43.80;;;;;;1486084;40;19972;-70
2021/06/19 03:22:02;;;;;;;;;;;26.30;43.80;;;;;;1486204;40;19940;-70
2021/06/19 03:23:23;;;;;;;;;;;26.30;44.00;;;;;;1486411;40;19950;-70
2021/06/19 03:24:44;;;;;;;;;;;26.30;44.10;;;;;;1487305;40;19937;-70
2021/06/19 03:26:05;;;;;;;;;;;26.30;44.20;;;;;;1487552;40;20252;-70
2021/06/19 03:27:26;;;;;;;;;;;26.30;44.60;;;;;;1487619;40;19936;-70
2021/06/19 03:28:47;;;;;;;;;;;26.20;44.20;;;;;;1487355;40;20216;-70
2021/06/19 03:30:08;;;;;;;;;;;26.30;43.90;;;;;;1486100;40;19936;-70
2021/06/19 03:31:33;;;;;;;;;;;26.20;44.10;;;;;;1487471;40;19942;-70
2021/06/19 03:32:54;;;;;;;;;;;26.30;44.30;;;;;;1487344;40;19972;-70
2021/06/19 03:34:14;;;;;;;;;;;26.20;44.40;;;;;;1487514;40;19932;-70
2021/06/19 03:35:35;;;;;;;;;;;26.20;44.20;;;;;;1486490;40;19937;-70
2021/06/19 03:36:59;;;;;;;;;;;26.20;44.30;;;;;;1486107;40;19936;-70
2021/06/19 03:38:20;;;;;;;;;;;26.20;44.90;;;;;;1487442;39;19980;-70
2021/06/19 03:39:41;;;;;;;;;;;26.20;44.10;;;;;;1486851;39;19936;-70
2021/06/19 03:41:01;;;;;;;;;;;26.10;44.00;;;;;;1487192;40;19943;-70
2021/06/19 03:42:22;;;;;;;;;;;26.10;44.70;;;;;;1486563;40;19936;-70
2021/06/19 03:43:43;;;;;;;;;;;26.10;44.50;;;;;;1486228;40;20030;-70
2021/06/19 03:45:04;;;;;;;;;;;26.10;44.50;;;;;;1487958;40;20166;-70
2021/06/19 03:46:25;;;;;;;;;;;26.10;44.50;;;;;;1486022;40;19936;-70
2021/06/19 03:47:47;;;;;;;;;;;26.00;46.00;;;;;;1485975;40;19953;-70
2021/06/19 03:49:08;;;;;;;;;;;26.10;45.10;;;;;;1487445;39;19936;-70
2021/06/19 03:50:29;;;;;;;;;;;26.00;44.70;;;;;;1483516;40;19941;-70
2021/06/19 03:51:49;;;;;;;;;;;26.00;46.20;;;;;;1485438;40;19940;-70
2021/06/19 03:53:10;;;;;;;;;;;26.00;45.50;;;;;;1487557;40;19932;-70
2021/06/19 03:54:37;;;;;;;;;;;26.00;46.00;;;;;;1487889;40;19944;-70
2021/06/19 03:55:58;;;;;;;;;;;25.90;45.20;;;;;;1484923;40;19936;-70
2021/06/19 03:57:23;;;;;;;;;;;25.90;45.00;;;;;;1486801;40;19953;-70
2021/06/19 03:58:43;;;;;;;;;;;25.90;45.20;;;;;;1485909;40;19940;-70
2021/06/19 04:00:08;;;;;;;;;;;25.90;45.10;;;;;;1486972;40;19974;-70
2021/06/19 04:01:29;;;;;;;;;;;25.90;44.90;;;;;;1486917;39;19932;-70
2021/06/19 04:02:50;;;;;;;;;;;25.80;44.80;;;;;;1486547;40;19939;-70
2021/06/19 04:04:11;;;;;;;;;;;25.80;44.60;;;;;;1484917;40;19948;-70
2021/06/19 04:05:32;;;;;;;;;;;25.80;44.80;;;;;;1486037;40;20546;-70
2021/06/19 04:06:53;;;;;;;;;;;25.80;45.40;;;;;;1486570;40;19940;-70
2021/06/19 04:08:14;;;;;;;;;;;25.80;44.80;;;;;;1486085;40;20429;-70
2021/06/19 04:09:34;;;;;;;;;;;25.80;44.80;;;;;;1486076;40;19971;-69
2021/06/19 04:10:55;;;;;;;;;;;25.80;44.80;;;;;;1487306;40;20275;-70
2021/06/19 04:12:16;;;;;;;;;;;25.70;45.00;;;;;;1486902;40;19947;-70
2021/06/19 04:13:37;;;;;;;;;;;25.70;45.60;;;;;;1486379;40;19940;-70
2021/06/19 04:14:57;;;;;;;;;;;25.70;45.60;;;;;;1485162;40;19936;-70
2021/06/19 04:16:18;;;;;;;;;;;25.70;44.90;;;;;;1485357;39;20326;-70
2021/06/19 04:17:40;;;;;;;;;;;25.70;45.00;;;;;;1487153;40;19943;-70
2021/06/19 04:19:01;;;;;;;;;;;25.70;44.90;;;;;;1485351;40;20220;-70
2021/06/19 04:20:23;;;;;;;;;;;25.70;45.10;;;;;;1487449;40;19936;-70
2021/06/19 04:21:44;;;;;;;;;;;25.70;45.20;;;;;;1488143;40;19946;-70
2021/06/19 04:23:05;;;;;;;;;;;25.70;45.20;;;;;;1487017;39;20375;-70
2021/06/19 04:24:26;;;;;;;;;;;25.70;45.10;;;;;;1487115;40;19932;-70
2021/06/19 04:25:46;;;;;;;;;;;25.70;45.20;;;;;;1486097;40;19959;-70
2021/06/19 04:27:11;;;;;;;;;;;25.70;45.10;;;;;;1486434;40;20022;-70
2021/06/19 04:28:32;;;;;;;;;;;25.60;45.20;;;;;;1485858;40;19997;-70
2021/06/19 04:29:53;;;;;;;;;;;25.70;45.10;;;;;;1487265;40;20510;-70
2021/06/19 04:31:14;;;;;;;;;;;25.70;45.70;;;;;;1487485;39;20434;-70
2021/06/19 04:32:35;;;;;;;;;;;25.70;45.40;;;;;;1487467;40;20296;-70
2021/06/19 04:33:56;;;;;;;;;;;25.60;46.00;;;;;;1487391;40;20518;-70
2021/06/19 04:35:17;;;;;;;;;;;25.60;45.50;;;;;;1486690;40;19947;-70
2021/06/19 04:36:38;;;;;;;;;;;25.60;45.40;;;;;;1486170;40;19966;-70
2021/06/19 04:37:59;;;;;;;;;;;25.60;45.10;;;;;;1486456;40;19932;-70
2021/06/19 04:39:20;;;;;;;;;;;25.60;45.40;;;;;;1487113;40;20021;-70
2021/06/19 04:40:51;;;;;;;;;;;25.60;45.70;;;;;;1487374;40;19956;-70
2021/06/19 04:42:15;;;;;;;;;;;25.60;45.60;;;;;;1482017;40;19940;-70
2021/06/19 04:45:24;;;;;;;;;;;25.60;47.30;;;;;;1482204;40;19939;-70
2021/06/19 04:46:45;;;;;;;;;;;25.50;45.80;;;;;;1487525;40;20021;-71
2021/06/19 04:48:07;;;;;;;;;;;25.50;46.50;;;;;;1485814;40;19932;-70
2021/06/19 04:49:28;;;;;;;;;;;25.50;46.60;;;;;;1485444;40;19959;-70
2021/06/19 04:50:49;;;;;;;;;;;25.50;46.60;;;;;;1485760;40;19944;-70
2021/06/19 04:52:10;;;;;;;;;;;25.50;46.40;;;;;;1486610;40;19976;-70
2021/06/19 04:53:31;;;;;;;;;;;25.50;47.90;;;;;;1486730;40;19951;-70
2021/06/19 04:54:53;;;;;;;;;;;25.50;47.20;;;;;;1486736;40;20401;-70
2021/06/19 04:56:14;;;;;;;;;;;25.50;49.10;;;;;;1486092;40;19939;-70
2021/06/19 04:57:35;;;;;;;;;;;25.40;49.00;;;;;;1486884;40;19963;-71
2021/06/19 04:58:56;;;;;;;;;;;25.40;49.80;;;;;;1486081;39;20184;-70
2021/06/19 05:00:16;;;;;;;;;;;25.40;48.50;;;;;;1486887;39;19944;-70
2021/06/19 05:01:38;;;;;;;;;;;25.40;47.10;;;;;;1486299;39;19980;-71
2021/06/19 05:02:59;;;;;;;;;;;25.40;48.60;;;;;;1486733;39;19936;-71
2021/06/19 05:04:19;;;;;;;;;;;25.30;49.20;;;;;;1485181;40;19967;-70
2021/06/19 05:05:40;;;;;;;;;;;25.40;48.30;;;;;;1486552;40;19943;-70
2021/06/19 05:07:01;;;;;;;;;;;25.40;48.60;;;;;;1485719;40;19936;-69
2021/06/19 05:08:22;;;;;;;;;;;25.30;49.10;;;;;;1485864;40;19940;-69
2021/06/19 05:09:43;;;;;;;;;;;25.30;48.10;;;;;;1486129;40;20615;-69
2021/06/19 05:11:03;;;;;;;;;;;25.30;48.50;;;;;;1486805;40;19936;-69
2021/06/19 05:12:24;;;;;;;;;;;25.30;47.90;;;;;;1486412;40;19935;-69
2021/06/19 05:13:45;;;;;;;;;;;25.20;48.10;;;;;;1486387;40;19944;-69
2021/06/19 05:15:06;;;;;;;;;;;25.20;47.30;;;;;;1486970;40;19951;-69
2021/06/19 05:16:27;;;;;;;;;;;25.20;47.00;;;;;;1484814;40;19936;-69
2021/06/19 05:17:48;;;;;;;;;;;25.20;47.10;;;;;;1485960;40;19936;-69
2021/06/19 05:19:09;;;;;;;;;;;25.20;48.30;;;;;;1484688;40;19936;-69
2021/06/19 05:20:31;;;;;;;;;;;25.20;47.80;;;;;;1486802;40;19940;-69
2021/06/19 05:21:52;;;;;;;;;;;25.20;48.90;;;;;;1486718;39;19943;-70
2021/06/19 05:23:13;;;;;;;;;;;25.20;49.50;;;;;;1486425;39;19944;-69
2021/06/19 05:24:34;;;;;;;;;;;25.20;48.90;;;;;;1485463;40;20176;-70
2021/06/19 05:25:55;;;;;;;;;;;25.20;48.40;;;;;;1487033;40;19951;-70
2021/06/19 05:27:16;;;;;;;;;;;25.20;50.60;;;;;;1487269;39;19940;-69
2021/06/19 05:28:37;;;;;;;;;;;25.20;49.80;;;;;;1486186;39;19936;-69
2021/06/19 05:29:58;;;;;;;;;;;25.20;49.20;;;;;;1486127;40;19936;-70
2021/06/19 05:31:19;;;;;;;;;;;25.20;50.10;;;;;;1483282;40;19972;-70
2021/06/19 05:32:40;;;;;;;;;;;25.20;48.60;;;;;;1486071;40;19980;-69
2021/06/19 05:34:01;;;;;;;;;;;25.10;49.20;;;;;;1485343;40;19932;-69
2021/06/19 05:35:22;;;;;;;;;;;25.10;49.10;;;;;;1486780;40;20220;-69
2021/06/19 05:36:43;;;;;;;;;;;25.10;49.80;;;;;;1485918;40;19966;-70
2021/06/19 05:38:04;;;;;;;;;;;25.10;50.60;;;;;;1487077;40;20022;-69
2021/06/19 05:39:24;;;;;;;;;;;25.10;48.90;;;;;;1483130;40;19937;-72
2021/06/19 05:40:46;;;;;;;;;;;25.10;49.50;;;;;;1485467;40;19938;-69
2021/06/19 05:42:07;;;;;;;;;;;25.10;48.90;;;;;;1485865;40;19937;-69
2021/06/19 05:43:28;;;;;;;;;;;25.10;49.60;;;;;;1487393;40;19931;-70
2021/06/19 05:44:49;;;;;;;;;;;25.10;48.10;;;;;;1488449;40;20029;-69
2021/06/19 05:46:10;;;;;;;;;;;25.10;48.70;;;;;;1486544;40;19992;-70
2021/06/19 05:47:31;;;;;;;;;;;25.10;48.20;;;;;;1486731;40;19943;-71
2021/06/19 05:48:56;;;;;;;;;;;25.10;48.40;;;;;;1485671;40;20445;-71
2021/06/19 05:50:17;;;;;;;;;;;25.10;48.00;;;;;;1485981;40;19936;-69
2021/06/19 05:51:38;;;;;;;;;;;25.20;47.80;;;;;;1487511;40;19967;-70
2021/06/19 05:52:59;;;;;;;;;;;25.10;47.90;;;;;;1486743;40;19932;-70
2021/06/19 05:54:20;;;;;;;;;;;25.10;48.00;;;;;;1486961;40;20040;-70
2021/06/19 05:55:40;;;;;;;;;;;25.10;47.80;;;;;;1487379;40;19972;-70
2021/06/19 05:57:02;;;;;;;;;;;25.10;47.90;;;;;;1486464;39;20178;-71
2021/06/19 05:58:23;;;;;;;;;;;25.10;49.30;;;;;;1485973;40;20017;-70
2021/06/19 05:59:44;;;;;;;;;;;25.10;48.50;;;;;;1487929;40;20044;-70
2021/06/19 06:01:05;;;;;;;;;;;25.10;48.10;;;;;;1483686;40;19936;-71
2021/06/19 06:02:26;;;;;;;;;;;25.10;49.60;;;;;;1483328;40;20374;-71
2021/06/19 06:03:48;;;;;;;;;;;25.10;50.50;;;;;;1486023;40;19936;-71
2021/06/19 06:05:10;;;;;;;;;;;25.10;50.90;;;;;;1484206;40;20338;-70
2021/06/19 06:06:31;;;;;;;;;;;25.20;49.30;;;;;;1486462;40;20160;-70
2021/06/19 06:07:52;;;;;;;;;;;25.20;49.10;;;;;;1485096;40;20028;-70
2021/06/19 06:09:13;;;;;;;;;;;25.10;48.60;;;;;;1486756;40;19940;-70
2021/06/19 06:10:35;;;;;;;;;;;25.10;48.40;;;;;;1486853;39;19944;-71
2021/06/19 06:11:56;;;;;;;;;;;25.10;49.60;;;;;;1488365;39;19936;-70
2021/06/19 06:13:17;;;;;;;;;;;25.20;48.70;;;;;;1486110;40;19936;-70
2021/06/19 06:14:38;;;;;;;;;;;25.20;48.40;;;;;;1487689;40;19935;-70
2021/06/19 06:15:58;;;;;;;;;;;25.10;48.50;;;;;;1481147;40;20045;-71
2021/06/19 06:17:19;;;;;;;;;;;25.20;50.00;;;;;;1485997;40;19940;-70
2021/06/19 06:18:40;;;;;;;;;;;25.20;50.00;;;;;;1486030;40;20247;-71
2021/06/19 06:20:01;;;;;;;;;;;25.20;49.20;;;;;;1486872;40;19939;-70
2021/06/19 06:21:21;;;;;;;;;;;25.20;48.80;;;;;;1487078;40;19947;-71
2021/06/19 06:22:42;;;;;;;;;;;25.20;48.70;;;;;;1486155;40;19936;-70
2021/06/19 06:24:04;;;;;;;;;;;25.20;48.80;;;;;;1486148;40;19932;-71
2021/06/19 06:25:25;;;;;;;;;;;25.20;49.20;;;;;;1487189;40;19981;-70
2021/06/19 06:26:45;;;;;;;;;;;25.20;48.90;;;;;;1487223;40;20252;-70
2021/06/19 06:28:06;;;;;;;;;;;25.30;49.30;;;;;;1484350;40;19936;-71
2021/06/19 06:29:27;;;;;;;;;;;25.30;48.70;;;;;;1485627;40;19939;-70
2021/06/19 06:30:48;;;;;;;;;;;25.30;48.50;;;;;;1485650;39;20034;-71
2021/06/19 06:32:09;;;;;;;;;;;25.30;48.60;;;;;;1487810;39;19944;-70
2021/06/19 06:33:30;;;;;;;;;;;25.30;48.50;;;;;;1485519;39;19940;-71
2021/06/19 06:34:51;;;;;;;;;;;25.30;48.60;;;;;;1485419;40;19952;-69
2021/06/19 06:36:11;;;;;;;;;;;25.30;50.30;;;;;;1486090;40;19932;-70
2021/06/19 06:37:32;;;;;;;;;;;25.30;49.40;;;;;;1484493;40;19944;-70
2021/06/19 06:38:53;;;;;;;;;;;25.30;49.20;;;;;;1486767;40;20204;-70
2021/06/19 06:40:14;;;;;;;;;;;25.30;49.10;;;;;;1488038;40;20218;-70
2021/06/19 06:41:35;;;;;;;;;;;25.40;48.60;;;;;;1486291;40;19956;-70
2021/06/19 06:42:56;;;;;;;;;;;25.30;48.50;;;;;;1486129;40;19940;-70
2021/06/19 06:44:17;;;;;;;;;;;25.40;48.60;;;;;;1487187;40;20192;-70
2021/06/19 06:45:37;;;;;;;;;;;25.40;48.50;;;;;;1486744;40;20013;-70
2021/06/19 06:46:58;;;;;;;;;;;25.40;48.50;;;;;;1486507;40;20017;-71
2021/06/19 06:48:19;;;;;;;;;;;25.40;50.80;;;;;;1485615;40;19952;-71
2021/06/19 06:49:40;;;;;;;;;;;25.40;49.60;;;;;;1488064;40;19949;-71
2021/06/19 06:51:01;;;;;;;;;;;25.40;49.80;;;;;;1486503;40;19959;-71
2021/06/19 06:52:21;;;;;;;;;;;25.40;49.10;;;;;;1488056;40;19946;-70
2021/06/19 06:53:42;;;;;;;;;;;25.50;49.00;;;;;;1486778;40;20238;-70
2021/06/19 06:55:04;;;;;;;;;;;25.50;48.50;;;;;;1485004;40;20527;-70
2021/06/19 06:56:25;;;;;;;;;;;25.50;48.20;;;;;;1484616;40;19968;-70
2021/06/19 06:57:46;;;;;;;;;;;25.50;48.20;;;;;;1485271;40;19943;-70
2021/06/19 06:59:07;;;;;;;;;;;25.50;48.20;;;;;;1482736;40;20300;-71
2021/06/19 07:00:27;;;;;;;;;;;25.50;48.30;;;;;;1484872;40;20595;-70
2021/06/19 07:01:48;;;;;;;;;;;25.50;48.20;;;;;;1486140;40;19932;-71
2021/06/19 07:03:09;;;;;;;;;;;25.50;48.90;;;;;;1486210;40;20025;-70
2021/06/19 07:04:30;;;;;;;;;;;25.60;48.50;;;;;;1486910;40;19964;-70
2021/06/19 07:05:50;;;;;;;;;;;25.60;48.30;;;;;;1487011;39;19943;-71
2021/06/19 07:07:11;;;;;;;;;;;25.60;49.20;;;;;;1486275;39;20244;-70
2021/06/19 07:08:32;;;;;;;;;;;25.60;48.60;;;;;;1487827;39;20172;-70
2021/06/19 07:09:53;;;;;;;;;;;25.70;48.30;;;;;;1486116;40;19952;-70
2021/06/19 07:11:14;;;;;;;;;;;25.70;48.40;;;;;;1485762;40;19932;-70
2021/06/19 07:12:37;;;;;;;;;;;25.60;48.40;;;;;;1486255;40;20028;-70
2021/06/19 07:13:58;;;;;;;;;;;25.70;48.40;;;;;;1487593;40;19955;-71
2021/06/19 07:15:19;;;;;;;;;;;25.70;48.50;;;;;;1485297;40;19940;-70
2021/06/19 07:16:40;;;;;;;;;;;25.70;48.30;;;;;;1485765;40;19932;-70
2021/06/19 07:18:01;;;;;;;;;;;25.70;48.20;;;;;;1486680;40;19943;-70
2021/06/19 07:19:22;;;;;;;;;;;25.70;48.40;;;;;;1487747;40;19943;-71
2021/06/19 07:20:42;;;;;;;;;;;25.70;48.70;;;;;;1486859;40;19932;-70
2021/06/19 07:22:03;;;;;;;;;;;25.70;48.30;;;;;;1486820;40;20173;-70
2021/06/19 07:23:25;;;;;;;;;;;25.70;48.20;;;;;;1486965;40;19940;-70
2021/06/19 07:24:47;;;;;;;;;;;25.80;48.10;;;;;;1488213;40;19940;-71
2021/06/19 07:26:07;;;;;;;;;;;25.80;48.50;;;;;;1488270;39;19976;-70
2021/06/19 07:27:28;;;;;;;;;;;25.80;48.40;;;;;;1486459;39;19932;-70
2021/06/19 07:28:50;;;;;;;;;;;25.80;48.10;;;;;;1485695;40;19948;-70
2021/06/19 07:30:11;;;;;;;;;;;25.80;47.90;;;;;;1485930;40;19944;-71
2021/06/19 07:31:32;;;;;;;;;;;25.90;48.50;;;;;;1487515;40;19936;-71
2021/06/19 07:32:54;;;;;;;;;;;25.80;48.10;;;;;;1485255;40;20028;-70
2021/06/19 07:34:15;;;;;;;;;;;25.90;48.10;;;;;;1486560;40;20204;-71
2021/06/19 07:35:36;;;;;;;;;;;25.90;48.80;;;;;;1486608;40;19932;-71
2021/06/19 07:36:56;;;;;;;;;;;25.90;49.10;;;;;;1487087;40;19955;-71
2021/06/19 07:38:17;;;;;;;;;;;25.90;48.40;;;;;;1484727;40;19947;-71
2021/06/19 07:39:38;;;;;;;;;;;25.90;48.20;;;;;;1488639;40;19932;-71
2021/06/19 07:40:59;;;;;;;;;;;25.90;48.20;;;;;;1485270;40;19932;-71
2021/06/19 07:42:21;;;;;;;;;;;25.90;48.90;;;;;;1487439;40;20328;-71
2021/06/19 07:43:43;;;;;;;;;;;25.90;48.50;;;;;;1487944;40;20003;-71
2021/06/19 07:45:05;;;;;;;;;;;26.00;48.60;;;;;;1488028;39;19962;-71
2021/06/19 07:46:25;;;;;;;;;;;26.00;48.60;;;;;;1488468;40;19939;-71
2021/06/19 07:47:46;;;;;;;;;;;26.00;48.50;;;;;;1487274;40;19936;-71
2021/06/19 07:49:07;;;;;;;;;;;26.00;48.30;;;;;;1486841;40;19939;-71
2021/06/19 07:50:28;;;;;;;;;;;26.00;48.30;;;;;;1487337;39;19950;-71
2021/06/19 07:51:49;;;;;;;;;;;26.00;48.90;;;;;;1486829;40;19943;-70
2021/06/19 07:53:10;;;;;;;;;;;26.10;48.70;;;;;;1487940;40;19932;-71